createdAt,value
2019-02-08T00:00:14.423Z,25.7
2019-02-08T00:01:15.791Z,25.7
2019-02-08T00:02:17.130Z,25.8
2019-02-08T00:03:18.505Z,25.9
2019-02-08T00:04:19.872Z,25.9
2019-02-08T00:05:21.232Z,25.8
2019-02-08T00:06:22.606Z,25.6
2019-02-08T00:07:23.985Z,25.7
2019-02-08T00:08:25.379Z,25.6
2019-02-08T00:09:26.731Z,25.9
2019-02-08T00:10:28.105Z,25.8
2019-02-08T00:11:29.448Z,25.7
2019-02-08T00:12:30.820Z,25.6
2019-02-08T00:13:32.194Z,25.8
2019-02-08T00:14:33.566Z,25.9
2019-02-08T00:15:34.940Z,25.6
2019-02-08T00:16:36.317Z,25.8
2019-02-08T00:17:37.680Z,25.6
2019-02-08T00:18:39.047Z,25.6
2019-02-08T00:19:40.426Z,25.8
2019-02-08T00:20:41.772Z,25.7
2019-02-08T00:21:43.141Z,25.7
2019-02-08T00:22:44.518Z,25.5
2019-02-08T00:23:45.897Z,25.6
2019-02-08T00:24:47.281Z,25.7
2019-02-08T00:25:48.649Z,25.7
2019-02-08T00:26:50.011Z,25.8
2019-02-08T00:27:51.393Z,25.6
2019-02-08T00:28:52.801Z,25.7
2019-02-08T00:29:54.049Z,26.0
2019-02-08T00:30:55.411Z,25.6
2019-02-08T00:31:56.779Z,25.7
2019-02-08T00:32:58.147Z,25.8
2019-02-08T00:33:59.522Z,25.8
2019-02-08T00:35:00.894Z,26.0
2019-02-08T00:36:02.275Z,26.0
2019-02-08T00:37:03.635Z,25.8
2019-02-08T00:38:04.973Z,25.6
2019-02-08T00:39:06.343Z,26.0
2019-02-08T00:40:07.706Z,25.5
2019-02-08T00:41:09.073Z,25.6
2019-02-08T00:42:10.441Z,25.5
2019-02-08T00:43:11.840Z,25.5
2019-02-08T00:44:13.236Z,25.8
2019-02-08T00:45:14.607Z,25.8
2019-02-08T00:46:15.979Z,25.8
2019-02-08T00:47:17.315Z,25.7
2019-02-08T00:48:18.683Z,25.6
2019-02-08T00:49:20.049Z,26.1
2019-02-08T00:50:21.419Z,25.7
2019-02-08T00:51:22.793Z,25.7
2019-02-08T00:52:24.171Z,25.8
2019-02-08T00:53:25.537Z,25.7
2019-02-08T00:54:26.918Z,25.9
2019-02-08T00:55:28.292Z,25.9
2019-02-08T00:56:29.622Z,25.5
2019-02-08T00:57:30.991Z,25.8
2019-02-08T00:58:32.366Z,26.0
2019-02-08T00:59:33.799Z,25.7
2019-02-08T01:00:35.176Z,26.0
2019-02-08T01:01:36.565Z,26.0
2019-02-08T01:02:37.914Z,25.6
2019-02-08T01:03:39.263Z,25.8
2019-02-08T01:04:41.276Z,25.7
2019-02-08T01:05:42.596Z,25.7
2019-02-08T01:06:43.963Z,25.8
2019-02-08T01:07:45.336Z,26.0
2019-02-08T01:08:46.712Z,25.7
2019-02-08T01:09:48.103Z,25.7
2019-02-08T01:10:49.479Z,25.9
2019-02-08T01:11:50.845Z,25.6
2019-02-08T01:12:52.229Z,25.6
2019-02-08T01:13:53.586Z,25.6
2019-02-08T01:14:54.959Z,25.7
2019-02-08T01:15:56.340Z,25.8
2019-02-08T01:16:57.714Z,25.6
2019-02-08T01:17:59.074Z,25.9
2019-02-08T01:19:00.452Z,25.6
2019-02-08T01:20:01.831Z,25.8
2019-02-08T01:21:03.204Z,26.2
2019-02-08T01:22:04.562Z,25.9
2019-02-08T01:23:05.888Z,25.6
2019-02-08T01:24:07.270Z,25.7
2019-02-08T01:25:08.641Z,25.9
2019-02-08T01:26:10.046Z,25.8
2019-02-08T01:27:11.409Z,26.1
2019-02-08T01:28:12.804Z,26.0
2019-02-08T01:29:14.167Z,25.9
2019-02-08T01:30:15.535Z,25.8
2019-02-08T01:31:16.901Z,25.8
2019-02-08T01:32:18.285Z,25.7
2019-02-08T01:33:19.662Z,26.0
2019-02-08T01:34:21.100Z,26.2
2019-02-08T01:35:22.473Z,25.9
2019-02-08T01:36:23.858Z,25.9
2019-02-08T01:37:25.240Z,26.0
2019-02-08T01:38:26.608Z,26.2
2019-02-08T01:39:27.979Z,25.9
2019-02-08T01:40:29.351Z,25.9
2019-02-08T01:41:30.725Z,26.1
2019-02-08T01:42:32.102Z,26.0
2019-02-08T01:43:33.470Z,26.0
2019-02-08T01:44:34.847Z,25.8
2019-02-08T01:45:36.242Z,26.1
2019-02-08T01:46:37.623Z,26.1
2019-02-08T01:47:38.977Z,25.7
2019-02-08T01:48:40.352Z,26.2
2019-02-08T01:49:41.730Z,26.1
2019-02-08T01:50:43.108Z,26.1
2019-02-08T01:51:44.475Z,26.1
2019-02-08T01:52:45.853Z,26.1
2019-02-08T01:53:48.670Z,26.1
2019-02-08T01:54:48.565Z,25.8
2019-02-08T01:55:49.935Z,26.1
2019-02-08T01:56:51.313Z,26.1
2019-02-08T01:57:52.714Z,25.9
2019-02-08T01:58:54.079Z,25.9
2019-02-08T01:59:55.445Z,26.1
2019-02-08T02:00:56.825Z,26.0
2019-02-08T02:01:58.218Z,26.0
2019-02-08T02:02:59.583Z,26.1
2019-02-08T02:04:00.950Z,26.1
2019-02-08T02:05:02.315Z,25.8
2019-02-08T02:06:03.692Z,25.7
2019-02-08T02:07:05.071Z,25.9
2019-02-08T02:08:06.445Z,25.8
2019-02-08T02:09:07.854Z,25.9
2019-02-08T02:10:09.226Z,26.0
2019-02-08T02:11:10.655Z,26.1
2019-02-08T02:12:12.044Z,25.8
2019-02-08T02:13:13.437Z,26.1
2019-02-08T02:14:14.802Z,26.0
2019-02-08T02:15:16.182Z,25.9
2019-02-08T02:16:17.563Z,26.1
2019-02-08T02:17:18.929Z,26.1
2019-02-08T02:18:20.290Z,26.1
2019-02-08T02:19:21.660Z,25.9
2019-02-08T02:20:23.033Z,26.0
2019-02-08T02:21:24.399Z,26.1
2019-02-08T02:22:25.765Z,26.1
2019-02-08T02:23:27.179Z,26.1
2019-02-08T02:24:28.555Z,26.0
2019-02-08T02:25:29.924Z,26.0
2019-02-08T02:26:31.300Z,26.1
2019-02-08T02:27:32.661Z,26.0
2019-02-08T02:28:34.043Z,26.0
2019-02-08T02:29:35.402Z,25.9
2019-02-08T02:30:36.794Z,25.9
2019-02-08T02:31:38.156Z,25.9
2019-02-08T02:32:39.527Z,26.2
2019-02-08T02:33:40.897Z,26.3
2019-02-08T02:34:42.301Z,25.9
2019-02-08T02:35:43.664Z,25.9
2019-02-08T02:36:45.036Z,26.1
2019-02-08T02:37:46.400Z,26.0
2019-02-08T02:38:47.772Z,26.0
2019-02-08T02:39:49.140Z,26.3
2019-02-08T02:40:50.518Z,26.0
2019-02-08T02:41:51.884Z,26.0
2019-02-08T02:42:53.270Z,26.3
2019-02-08T02:43:54.653Z,26.3
2019-02-08T02:44:56.024Z,26.2
2019-02-08T02:45:57.398Z,26.3
2019-02-08T02:46:58.773Z,26.3
2019-02-08T02:48:00.143Z,26.3
2019-02-08T02:49:01.522Z,26.3
2019-02-08T02:50:02.889Z,26.3
2019-02-08T02:51:04.267Z,26.3
2019-02-08T02:52:05.630Z,26.3
2019-02-08T02:53:07.010Z,26.3
2019-02-08T02:54:08.369Z,26.3
2019-02-08T02:55:09.743Z,26.3
2019-02-08T02:56:11.114Z,26.2
2019-02-08T02:57:12.500Z,26.0
2019-02-08T02:58:13.877Z,26.0
2019-02-08T02:59:15.240Z,26.3
2019-02-08T03:00:16.615Z,26.3
2019-02-08T03:01:17.981Z,26.3
2019-02-08T03:02:19.353Z,26.3
2019-02-08T03:03:20.723Z,26.3
2019-02-08T03:04:22.086Z,26.2
2019-02-08T03:05:23.457Z,26.3
2019-02-08T03:06:24.831Z,26.3
2019-02-08T03:07:26.190Z,26.3
2019-02-08T03:08:27.574Z,26.3
2019-02-08T03:09:28.932Z,26.2
2019-02-08T03:10:30.297Z,26.3
2019-02-08T03:11:31.663Z,26.3
2019-02-08T03:12:33.056Z,26.0
2019-02-08T03:13:34.419Z,26.3
2019-02-08T03:14:35.791Z,26.2
2019-02-08T03:15:37.159Z,26.3
2019-02-08T03:16:38.536Z,26.3
2019-02-08T03:17:39.930Z,26.0
2019-02-08T03:18:41.299Z,26.3
2019-02-08T03:19:42.670Z,26.2
2019-02-08T03:20:44.029Z,26.3
2019-02-08T03:21:45.409Z,26.1
2019-02-08T03:22:46.796Z,26.3
2019-02-08T03:23:48.174Z,26.3
2019-02-08T03:24:49.533Z,26.3
2019-02-08T03:25:51.638Z,26.3
2019-02-08T03:26:53.010Z,26.3
2019-02-08T03:27:54.378Z,26.3
2019-02-08T03:28:55.783Z,26.3
2019-02-08T03:29:57.123Z,26.3
2019-02-08T03:30:58.509Z,26.2
2019-02-08T03:31:59.878Z,26.0
2019-02-08T03:33:01.263Z,26.3
2019-02-08T03:34:02.568Z,26.2
2019-02-08T03:35:03.941Z,26.3
2019-02-08T03:36:05.308Z,25.9
2019-02-08T03:37:06.714Z,26.3
2019-02-08T03:38:08.078Z,26.2
2019-02-08T03:39:09.445Z,26.0
2019-02-08T03:40:10.818Z,26.2
2019-02-08T03:41:12.197Z,26.0
2019-02-08T03:42:13.585Z,26.1
2019-02-08T03:43:14.955Z,26.3
2019-02-08T03:44:16.316Z,26.0
2019-02-08T03:45:17.739Z,26.3
2019-02-08T03:46:19.106Z,26.3
2019-02-08T03:47:20.484Z,26.2
2019-02-08T03:48:21.844Z,26.1
2019-02-08T03:49:23.210Z,26.3
2019-02-08T03:50:24.577Z,26.3
2019-02-08T03:51:25.954Z,26.2
2019-02-08T03:52:27.326Z,26.2
2019-02-08T03:53:28.698Z,26.3
2019-02-08T03:54:30.082Z,26.3
2019-02-08T03:55:31.457Z,26.3
2019-02-08T03:56:32.814Z,26.1
2019-02-08T03:57:34.186Z,26.3
2019-02-08T03:58:35.557Z,26.3
2019-02-08T03:59:36.920Z,26.3
2019-02-08T04:00:38.294Z,26.3
2019-02-08T04:01:39.669Z,26.2
2019-02-08T04:02:41.036Z,26.3
2019-02-08T04:03:42.424Z,26.3
2019-02-08T04:04:43.792Z,26.3
2019-02-08T04:05:45.152Z,26.3
2019-02-08T04:06:46.532Z,26.3
2019-02-08T04:07:47.888Z,26.3
2019-02-08T04:08:49.257Z,26.3
2019-02-08T04:09:50.628Z,26.3
2019-02-08T04:10:51.998Z,26.3
2019-02-08T04:11:53.359Z,26.3
2019-02-08T04:12:54.728Z,25.9
2019-02-08T04:13:56.096Z,26.3
2019-02-08T04:14:57.463Z,26.0
2019-02-08T04:15:58.826Z,26.3
2019-02-08T04:17:00.198Z,26.3
2019-02-08T04:18:01.581Z,26.3
2019-02-08T04:19:02.946Z,26.1
2019-02-08T04:20:04.318Z,26.3
2019-02-08T04:21:05.675Z,26.2
2019-02-08T04:22:07.043Z,26.2
2019-02-08T04:23:08.423Z,26.3
2019-02-08T04:24:09.777Z,26.1
2019-02-08T04:25:11.153Z,26.3
2019-02-08T04:26:12.516Z,26.0
2019-02-08T04:27:13.882Z,26.2
2019-02-08T04:28:15.256Z,26.3
2019-02-08T04:29:16.630Z,26.3
2019-02-08T04:30:17.993Z,26.3
2019-02-08T04:31:19.372Z,26.3
2019-02-08T04:32:20.724Z,26.3
2019-02-08T04:33:22.128Z,26.2
2019-02-08T04:34:23.493Z,26.3
2019-02-08T04:35:24.899Z,26.3
2019-02-08T04:36:26.274Z,26.3
2019-02-08T04:37:27.640Z,26.3
2019-02-08T04:38:29.012Z,26.1
2019-02-08T04:39:30.384Z,26.0
2019-02-08T04:40:31.808Z,26.3
2019-02-08T04:41:33.178Z,26.3
2019-02-08T04:42:34.548Z,26.3
2019-02-08T04:43:35.922Z,26.3
2019-02-08T04:44:37.286Z,26.1
2019-02-08T04:45:38.661Z,26.2
2019-02-08T04:46:40.041Z,26.1
2019-02-08T04:47:41.439Z,26.0
2019-02-08T04:48:42.799Z,26.3
2019-02-08T04:49:44.173Z,26.3
2019-02-08T04:50:45.546Z,26.0
2019-02-08T04:51:46.903Z,26.2
2019-02-08T04:52:48.274Z,26.0
2019-02-08T04:53:49.645Z,26.3
2019-02-08T04:54:51.016Z,26.2
2019-02-08T04:55:52.381Z,26.3
2019-02-08T04:56:53.736Z,26.3
2019-02-08T04:57:55.103Z,26.3
2019-02-08T04:58:56.472Z,26.3
2019-02-08T04:59:58.406Z,26.2
2019-02-08T05:00:59.782Z,26.2
2019-02-08T05:02:01.153Z,26.3
2019-02-08T05:03:02.533Z,26.3
2019-02-08T05:04:03.906Z,26.3
2019-02-08T05:05:05.263Z,26.3
2019-02-08T05:06:06.656Z,26.3
2019-02-08T05:07:08.036Z,26.3
2019-02-08T05:08:09.411Z,26.3
2019-02-08T05:09:10.786Z,26.3
2019-02-08T05:10:12.168Z,26.3
2019-02-08T05:11:13.523Z,26.1
2019-02-08T05:12:14.908Z,26.2
2019-02-08T05:13:16.256Z,26.3
2019-02-08T05:14:17.630Z,26.3
2019-02-08T05:15:19.000Z,26.3
2019-02-08T05:16:20.364Z,26.3
2019-02-08T05:17:21.755Z,26.3
2019-02-08T05:18:23.104Z,26.3
2019-02-08T05:19:24.472Z,26.3
2019-02-08T05:20:25.842Z,26.3
2019-02-08T05:21:27.208Z,26.3
2019-02-08T05:22:28.584Z,26.2
2019-02-08T05:23:29.952Z,26.3
2019-02-08T05:24:31.322Z,26.4
2019-02-08T05:25:32.688Z,26.2
2019-02-08T05:26:34.057Z,26.2
2019-02-08T05:27:35.423Z,26.2
2019-02-08T05:28:36.821Z,26.2
2019-02-08T05:29:38.194Z,26.2
2019-02-08T05:30:39.565Z,26.3
2019-02-08T05:31:40.996Z,26.2
2019-02-08T05:32:42.349Z,26.3
2019-02-08T05:33:43.717Z,26.3
2019-02-08T05:34:45.076Z,26.3
2019-02-08T05:35:46.448Z,26.4
2019-02-08T05:36:47.817Z,26.3
2019-02-08T05:37:49.199Z,26.4
2019-02-08T05:38:50.565Z,26.3
2019-02-08T05:39:51.960Z,26.3
2019-02-08T05:40:53.324Z,26.3
2019-02-08T05:41:54.710Z,26.3
2019-02-08T05:42:56.129Z,26.3
2019-02-08T05:43:57.479Z,26.3
2019-02-08T05:44:58.890Z,26.2
2019-02-08T05:46:00.248Z,26.3
2019-02-08T05:47:01.623Z,26.3
2019-02-08T05:48:02.997Z,26.3
2019-02-08T05:49:04.360Z,26.3
2019-02-08T05:50:05.732Z,26.3
2019-02-08T05:51:07.108Z,26.3
2019-02-08T05:52:08.472Z,26.3
2019-02-08T05:53:09.843Z,26.3
2019-02-08T05:54:11.213Z,26.3
2019-02-08T05:55:12.588Z,26.3
2019-02-08T05:56:13.962Z,26.3
2019-02-08T05:57:15.339Z,26.4
2019-02-08T05:58:16.707Z,26.3
2019-02-08T05:59:18.075Z,26.3
2019-02-08T06:00:19.443Z,26.3
2019-02-08T06:01:20.812Z,26.2
2019-02-08T06:02:22.168Z,26.4
2019-02-08T06:03:23.551Z,26.3
2019-02-08T06:04:24.931Z,26.4
2019-02-08T06:05:26.295Z,26.4
2019-02-08T06:06:27.672Z,26.3
2019-02-08T06:07:29.052Z,26.2
2019-02-08T06:08:30.411Z,26.4
2019-02-08T06:09:31.776Z,26.4
2019-02-08T06:10:33.143Z,26.3
2019-02-08T06:11:34.507Z,26.3
2019-02-08T06:12:35.877Z,26.4
2019-02-08T06:13:37.241Z,26.3
2019-02-08T06:14:38.662Z,26.4
2019-02-08T06:15:39.996Z,26.3
2019-02-08T06:16:41.354Z,26.4
2019-02-08T06:17:42.734Z,26.2
2019-02-08T06:18:44.097Z,26.2
2019-02-08T06:19:45.546Z,26.3
2019-02-08T06:20:46.914Z,26.3
2019-02-08T06:21:48.300Z,26.3
2019-02-08T06:22:49.652Z,26.4
2019-02-08T06:23:51.051Z,26.3
2019-02-08T06:24:52.414Z,26.4
2019-02-08T06:25:53.783Z,26.4
2019-02-08T06:26:55.161Z,26.5
2019-02-08T06:27:56.529Z,26.6
2019-02-08T06:28:57.891Z,26.7
2019-02-08T06:29:59.291Z,26.7
2019-02-08T06:31:00.648Z,27.0
2019-02-08T06:32:02.021Z,26.9
2019-02-08T06:33:03.394Z,26.9
2019-02-08T06:34:04.761Z,26.9
2019-02-08T06:35:06.130Z,26.9
2019-02-08T06:36:07.567Z,27.1
2019-02-08T06:37:08.927Z,27.2
2019-02-08T06:38:10.285Z,27.1
2019-02-08T06:39:11.656Z,27.2
2019-02-08T06:40:13.022Z,27.2
2019-02-08T06:41:14.387Z,27.3
2019-02-08T06:42:15.770Z,27.3
2019-02-08T06:43:17.129Z,27.4
2019-02-08T06:44:18.489Z,27.6
2019-02-08T06:45:19.856Z,27.5
2019-02-08T06:46:21.228Z,27.5
2019-02-08T06:47:22.595Z,27.4
2019-02-08T06:48:23.997Z,27.5
2019-02-08T06:49:25.378Z,27.6
2019-02-08T06:50:26.751Z,27.5
2019-02-08T06:51:28.117Z,27.7
2019-02-08T06:52:29.492Z,27.8
2019-02-08T06:53:30.865Z,27.7
2019-02-08T06:54:32.232Z,27.8
2019-02-08T06:55:33.654Z,27.8
2019-02-08T06:56:35.025Z,27.8
2019-02-08T06:57:36.406Z,28.0
2019-02-08T06:58:38.439Z,27.7
2019-02-08T06:59:41.219Z,27.7
2019-02-08T07:00:42.593Z,27.9
2019-02-08T07:01:43.953Z,27.7
2019-02-08T07:02:45.330Z,27.7
2019-02-08T07:03:46.703Z,28.0
2019-02-08T07:04:48.099Z,27.8
2019-02-08T07:05:50.217Z,27.7
2019-02-08T07:06:51.596Z,27.7
2019-02-08T07:07:52.961Z,27.3
2019-02-08T07:08:54.337Z,27.3
2019-02-08T07:09:55.713Z,27.2
2019-02-08T07:10:57.090Z,27.4
2019-02-08T07:11:58.466Z,27.3
2019-02-08T07:12:59.840Z,27.3
2019-02-08T07:14:01.209Z,27.5
2019-02-08T07:15:02.594Z,27.4
2019-02-08T07:16:03.960Z,27.4
2019-02-08T07:17:05.328Z,27.5
2019-02-08T07:18:06.774Z,27.7
2019-02-08T07:19:08.139Z,27.8
2019-02-08T07:20:09.536Z,27.5
2019-02-08T07:21:10.930Z,27.5
2019-02-08T07:22:12.325Z,27.3
2019-02-08T07:23:13.698Z,27.5
2019-02-08T07:24:15.064Z,27.4
2019-02-08T07:25:18.530Z,27.7
2019-02-08T07:26:19.106Z,27.5
2019-02-08T07:27:20.480Z,27.7
2019-02-08T07:28:21.842Z,27.6
2019-02-08T07:29:23.213Z,27.5
2019-02-08T07:30:24.589Z,27.5
2019-02-08T07:31:25.967Z,27.5
2019-02-08T07:32:27.335Z,27.4
2019-02-08T07:33:30.586Z,27.5
2019-02-08T07:34:32.012Z,27.3
2019-02-08T07:35:33.381Z,27.4
2019-02-08T07:36:34.765Z,27.4
2019-02-08T07:37:36.156Z,27.4
2019-02-08T07:38:37.526Z,27.5
2019-02-08T07:39:40.886Z,27.4
2019-02-08T07:40:42.261Z,27.4
2019-02-08T07:41:43.634Z,27.3
2019-02-08T07:42:45.008Z,27.5
2019-02-08T07:43:46.390Z,27.5
2019-02-08T07:44:47.763Z,27.3
2019-02-08T07:45:49.148Z,27.4
2019-02-08T07:46:50.536Z,27.3
2019-02-08T07:47:51.939Z,27.3
2019-02-08T07:48:53.286Z,27.2
2019-02-08T07:49:54.723Z,27.2
2019-02-08T07:50:56.085Z,27.1
2019-02-08T07:51:57.506Z,27.2
2019-02-08T07:52:58.904Z,27.3
2019-02-08T07:54:00.290Z,27.9
2019-02-08T07:55:01.653Z,28.2
2019-02-08T07:56:03.032Z,28.7
2019-02-08T07:57:04.465Z,28.7
2019-02-08T07:58:05.851Z,28.7
2019-02-08T07:59:07.249Z,28.6
2019-02-08T08:00:08.650Z,29.2
2019-02-08T08:01:10.076Z,29.5
2019-02-08T08:02:11.466Z,29.2
2019-02-08T08:03:12.817Z,29.0
2019-02-08T08:04:14.186Z,29.3
2019-02-08T08:05:15.584Z,29.1
2019-02-08T08:06:16.957Z,29.5
2019-02-08T08:07:20.142Z,29.3
2019-02-08T08:08:20.921Z,29.6
2019-02-08T08:09:22.341Z,29.4
2019-02-08T08:10:24.434Z,29.5
2019-02-08T08:11:25.977Z,29.7
2019-02-08T08:12:27.351Z,29.5
2019-02-08T08:13:30.645Z,30.0
2019-02-08T08:14:31.359Z,29.6
2019-02-08T08:15:32.726Z,29.6
2019-02-08T08:16:34.114Z,29.8
2019-02-08T08:17:35.513Z,29.8
2019-02-08T08:18:36.900Z,29.6
2019-02-08T08:19:38.286Z,29.1
2019-02-08T08:20:40.498Z,29.1
2019-02-08T08:21:41.909Z,28.6
2019-02-08T08:22:43.322Z,28.9
2019-02-08T08:23:44.694Z,28.8
2019-02-08T08:24:46.207Z,28.8
2019-02-08T08:25:47.631Z,28.7
2019-02-08T08:26:49.100Z,28.6
2019-02-08T08:27:50.681Z,28.6
2019-02-08T08:28:52.060Z,28.7
2019-02-08T08:29:53.434Z,28.7
2019-02-08T08:30:54.826Z,28.9
2019-02-08T08:31:56.200Z,28.6
2019-02-08T08:32:57.573Z,28.8
2019-02-08T08:33:58.969Z,28.6
2019-02-08T08:35:00.348Z,29.1
2019-02-08T08:36:01.766Z,29.0
2019-02-08T08:37:03.197Z,28.6
2019-02-08T08:38:04.601Z,28.7
2019-02-08T08:39:05.998Z,28.8
2019-02-08T08:40:07.406Z,28.7
2019-02-08T08:41:08.991Z,29.0
2019-02-08T08:42:10.518Z,28.9
2019-02-08T08:43:12.118Z,28.8
2019-02-08T08:44:13.499Z,28.9
2019-02-08T08:45:16.698Z,28.9
2019-02-08T08:46:20.686Z,28.7
2019-02-08T08:47:22.129Z,28.8
2019-02-08T08:48:23.475Z,28.8
2019-02-08T08:49:24.909Z,29.1
2019-02-08T08:50:26.362Z,28.8
2019-02-08T08:51:27.674Z,28.7
2019-02-08T08:52:29.759Z,28.5
2019-02-08T08:53:31.300Z,28.1
2019-02-08T08:54:32.718Z,27.9
2019-02-08T08:55:41.652Z,28.1
2019-02-08T08:56:35.438Z,28.1
2019-02-08T08:57:36.843Z,28.0
2019-02-08T08:58:38.243Z,27.8
2019-02-08T08:59:40.830Z,27.7
2019-02-08T09:00:42.220Z,27.5
2019-02-08T09:01:43.591Z,27.5
2019-02-08T09:02:44.970Z,27.2
2019-02-08T09:03:46.354Z,27.3
2019-02-08T09:04:47.731Z,27.3
2019-02-08T09:05:50.383Z,27.0
2019-02-08T09:06:51.749Z,27.1
2019-02-08T09:07:53.127Z,26.9
2019-02-08T09:08:54.491Z,27.0
2019-02-08T09:09:55.865Z,26.8
2019-02-08T09:10:57.269Z,26.7
2019-02-08T09:11:59.341Z,26.9
2019-02-08T09:13:01.522Z,26.5
2019-02-08T09:14:03.724Z,26.4
2019-02-08T09:15:07.422Z,26.4
2019-02-08T09:16:11.680Z,26.6
2019-02-08T09:17:15.637Z,26.3
2019-02-08T09:18:17.010Z,26.4
2019-02-08T09:19:18.393Z,26.6
2019-02-08T09:20:19.761Z,26.6
2019-02-08T09:21:21.746Z,26.6
2019-02-08T09:22:23.124Z,26.6
2019-02-08T09:23:24.522Z,26.7
2019-02-08T09:24:25.899Z,26.7
2019-02-08T09:25:27.286Z,26.6
2019-02-08T09:26:28.660Z,26.6
2019-02-08T09:27:30.042Z,26.6
2019-02-08T09:28:31.488Z,26.6
2019-02-08T09:29:32.843Z,26.3
2019-02-08T09:30:34.251Z,26.2
2019-02-08T09:31:35.624Z,26.5
2019-02-08T09:32:37.026Z,26.3
2019-02-08T09:33:38.483Z,26.5
2019-02-08T09:34:39.874Z,26.4
2019-02-08T09:35:41.246Z,26.4
2019-02-08T09:36:47.378Z,26.5
2019-02-08T09:37:43.996Z,26.3
2019-02-08T09:38:45.363Z,26.3
2019-02-08T09:39:46.750Z,25.9
2019-02-08T09:41:51.382Z,25.2
2019-02-08T09:42:52.753Z,24.4
2019-02-08T09:43:54.177Z,24.7
2019-02-08T09:44:55.565Z,24.5
2019-02-08T09:45:56.981Z,24.3
2019-02-08T09:46:59.112Z,24.2
2019-02-08T09:48:01.391Z,23.9
2019-02-08T09:49:02.769Z,24.1
2019-02-08T09:50:04.158Z,23.9
2019-02-08T09:51:05.575Z,24.0
2019-02-08T09:52:06.989Z,24.0
2019-02-08T09:53:08.364Z,23.7
2019-02-08T09:54:09.786Z,23.8
2019-02-08T09:55:11.185Z,23.8
2019-02-08T09:56:12.625Z,23.2
2019-02-08T09:57:14.100Z,23.2
2019-02-08T09:58:15.458Z,23.2
2019-02-08T09:59:16.837Z,23.4
2019-02-08T10:00:19.070Z,23.4
2019-02-08T10:01:20.481Z,23.3
2019-02-08T10:02:21.890Z,23.4
2019-02-08T10:03:23.269Z,23.3
2019-02-08T10:04:24.645Z,23.4
2019-02-08T10:05:26.041Z,23.2
2019-02-08T10:06:27.426Z,23.2
2019-02-08T10:07:28.795Z,23.2
2019-02-08T10:08:30.235Z,23.3
2019-02-08T10:09:31.618Z,23.2
2019-02-08T10:10:33.009Z,23.2
2019-02-08T10:11:34.441Z,23.3
2019-02-08T10:12:35.827Z,23.2
2019-02-08T10:13:37.227Z,23.2
2019-02-08T10:14:39.154Z,23.3
2019-02-08T10:15:41.840Z,23.2
2019-02-08T10:16:43.275Z,23.3
2019-02-08T10:17:44.666Z,23.2
2019-02-08T10:18:46.040Z,23.4
2019-02-08T10:19:47.414Z,23.2
2019-02-08T10:20:48.782Z,23.2
2019-02-08T10:21:50.160Z,23.3
2019-02-08T10:22:51.542Z,23.3
2019-02-08T10:23:53.448Z,23.1
2019-02-08T10:24:54.820Z,23.3
2019-02-08T10:25:56.195Z,23.2
2019-02-08T10:26:57.587Z,23.3
2019-02-08T10:27:58.975Z,23.2
2019-02-08T10:29:00.345Z,23.2
2019-02-08T10:30:01.727Z,23.5
2019-02-08T10:31:03.122Z,23.8
2019-02-08T10:32:04.517Z,23.7
2019-02-08T10:33:05.920Z,23.9
2019-02-08T10:34:07.711Z,24.0
2019-02-08T10:35:09.037Z,23.9
2019-02-08T10:36:10.439Z,23.8
2019-02-08T10:37:11.840Z,24.0
2019-02-08T10:38:14.137Z,24.0
2019-02-08T10:39:15.541Z,23.8
2019-02-08T10:40:16.920Z,23.2
2019-02-08T10:41:18.320Z,23.8
2019-02-08T10:42:19.699Z,23.8
2019-02-08T10:43:21.075Z,21.9
2019-02-08T10:44:22.457Z,20.8
2019-02-08T10:45:23.828Z,22.8
2019-02-08T10:46:25.241Z,23.9
2019-02-08T10:47:26.626Z,23.2
2019-02-08T10:48:28.022Z,22.5
2019-02-08T10:49:29.391Z,22.0
2019-02-08T10:50:30.860Z,22.0
2019-02-08T10:51:32.234Z,21.9
2019-02-08T10:52:33.640Z,21.9
2019-02-08T10:53:35.011Z,22.3
2019-02-08T10:54:36.401Z,22.1
2019-02-08T10:55:37.791Z,22.1
2019-02-08T10:56:40.068Z,22.7
2019-02-08T10:57:42.436Z,22.5
2019-02-08T10:58:43.826Z,22.8
2019-02-08T10:59:45.231Z,22.8
2019-02-08T11:00:46.627Z,22.9
2019-02-08T11:01:48.027Z,22.8
2019-02-08T11:02:49.396Z,22.8
2019-02-08T11:03:50.783Z,23.0
2019-02-08T11:04:52.188Z,23.2
2019-02-08T11:05:53.572Z,23.2
2019-02-08T11:06:55.021Z,23.3
2019-02-08T11:07:56.404Z,23.3
2019-02-08T11:08:57.778Z,23.2
2019-02-08T11:09:59.158Z,23.6
2019-02-08T11:11:00.553Z,23.9
2019-02-08T11:12:01.943Z,23.9
2019-02-08T11:13:03.342Z,23.8
2019-02-08T11:14:04.858Z,24.0
2019-02-08T11:15:06.313Z,23.7
2019-02-08T11:16:07.811Z,23.8
2019-02-08T11:17:11.145Z,23.7
2019-02-08T11:18:11.804Z,23.9
2019-02-08T11:19:13.191Z,23.3
2019-02-08T11:20:14.574Z,21.7
2019-02-08T11:21:15.998Z,19.9
2019-02-08T11:22:17.410Z,19.3
2019-02-08T11:23:18.785Z,18.3
2019-02-08T11:24:24.137Z,17.9
2019-02-08T11:25:24.723Z,18.1
2019-02-08T11:26:26.113Z,19.1
2019-02-08T11:27:27.514Z,19.4
2019-02-08T11:28:28.854Z,19.9
2019-02-08T11:29:30.249Z,20.0
2019-02-08T11:30:31.647Z,20.8
2019-02-08T11:31:33.015Z,20.9
2019-02-08T11:32:43.406Z,21.5
2019-02-08T11:33:37.624Z,22.0
2019-02-08T11:34:39.054Z,22.2
2019-02-08T11:35:40.434Z,20.0
2019-02-08T11:36:41.867Z,20.1
2019-02-08T11:37:43.255Z,19.7
2019-02-08T11:38:44.634Z,20.1
2019-02-08T11:39:46.019Z,20.0
2019-02-08T11:40:47.478Z,20.5
2019-02-08T11:41:48.856Z,20.8
2019-02-08T11:42:52.074Z,21.1
2019-02-08T11:43:53.457Z,21.1
2019-02-08T11:44:54.847Z,21.4
2019-02-08T11:45:56.245Z,21.6
2019-02-08T11:46:57.624Z,21.6
2019-02-08T11:47:59.937Z,21.4
2019-02-08T11:49:01.320Z,21.6
2019-02-08T11:50:02.721Z,22.0
2019-02-08T11:51:04.157Z,22.0
2019-02-08T11:52:05.567Z,22.0
2019-02-08T11:53:06.971Z,21.7
2019-02-08T11:54:08.331Z,21.7
2019-02-08T11:55:12.942Z,21.6
2019-02-08T11:56:14.314Z,22.2
2019-02-08T11:57:15.726Z,22.2
2019-02-08T11:58:17.278Z,22.7
2019-02-08T11:59:18.661Z,23.1
2019-02-08T12:00:20.050Z,23.7
2019-02-08T12:01:21.435Z,23.9
2019-02-08T12:02:22.804Z,23.9
2019-02-08T12:03:24.172Z,23.7
2019-02-08T12:04:25.547Z,24.1
2019-02-08T12:05:26.928Z,24.4
2019-02-08T12:06:28.303Z,24.7
2019-02-08T12:07:29.682Z,25.0
2019-02-08T12:08:31.152Z,25.4
2019-02-08T12:09:34.905Z,25.6
2019-02-08T12:10:35.488Z,25.8
2019-02-08T12:11:36.870Z,25.7
2019-02-08T12:12:38.450Z,26.0
2019-02-08T12:13:51.843Z,26.2
2019-02-08T12:14:53.280Z,26.3
2019-02-08T12:15:54.644Z,26.4
2019-02-08T12:16:59.145Z,26.5
2019-02-08T12:18:02.063Z,26.5
2019-02-08T12:19:03.917Z,26.5
2019-02-08T12:20:06.489Z,26.5
2019-02-08T12:21:09.062Z,26.9
2019-02-08T12:22:14.276Z,27.2
2019-02-08T12:23:16.747Z,27.4
2019-02-08T12:24:18.124Z,27.4
2019-02-08T12:25:20.479Z,27.5
2019-02-08T12:26:23.117Z,27.7
2019-02-08T12:27:28.249Z,27.6
2019-02-08T12:28:31.778Z,27.8
2019-02-08T12:29:33.306Z,27.9
2019-02-08T12:30:34.981Z,27.8
2019-02-08T12:31:38.763Z,27.9
2019-02-08T12:32:42.274Z,27.9
2019-02-08T12:33:45.607Z,27.8
2019-02-08T12:34:47.745Z,28.1
2019-02-08T12:35:49.168Z,28.0
2019-02-08T12:36:52.408Z,28.1
2019-02-08T12:37:55.286Z,27.9
2019-02-08T12:38:58.494Z,28.3
2019-02-08T12:40:02.167Z,28.1
2019-02-08T12:41:09.634Z,28.0
2019-02-08T12:42:06.882Z,28.2
2019-02-08T12:43:10.086Z,28.6
2019-02-08T12:44:13.857Z,28.6
2019-02-08T12:45:15.240Z,28.7
2019-02-08T12:46:17.145Z,28.8
2019-02-08T12:47:21.422Z,28.7
2019-02-08T12:48:26.060Z,28.8
2019-02-08T12:49:28.381Z,29.1
2019-02-08T12:50:29.763Z,28.6
2019-02-08T12:51:34.326Z,29.2
2019-02-08T12:52:36.277Z,28.6
2019-02-08T12:53:38.790Z,28.6
2019-02-08T12:54:41.543Z,29.0
2019-02-08T12:55:44.416Z,28.7
2019-02-08T12:56:47.407Z,28.8
2019-02-08T12:57:50.284Z,28.9
2019-02-08T12:58:54.113Z,28.7
2019-02-08T12:59:56.317Z,29.1
2019-02-08T13:00:59.409Z,29.3
2019-02-08T13:02:02.540Z,28.8
2019-02-08T13:03:05.580Z,29.2
2019-02-08T13:04:08.515Z,28.8
2019-02-08T13:05:10.561Z,29.2
2019-02-08T13:06:14.481Z,29.4
2019-02-08T13:07:17.626Z,29.4
2019-02-08T13:08:19.695Z,29.4
2019-02-08T13:09:23.678Z,29.3
2019-02-08T13:10:25.075Z,28.7
2019-02-08T13:11:28.681Z,28.0
2019-02-08T13:12:32.144Z,27.7
2019-02-08T13:13:34.389Z,27.7
2019-02-08T13:14:37.295Z,27.9
2019-02-08T13:15:40.288Z,27.7
2019-02-08T13:16:43.629Z,27.8
2019-02-08T13:17:46.127Z,27.8
2019-02-08T13:18:49.116Z,27.9
2019-02-08T13:19:51.624Z,27.7
2019-02-08T13:20:54.748Z,27.9
2019-02-08T13:21:59.223Z,27.8
2019-02-08T13:23:00.741Z,27.8
2019-02-08T13:24:03.569Z,28.0
2019-02-08T13:25:06.620Z,28.1
2019-02-08T13:26:08.588Z,28.1
2019-02-08T13:27:13.530Z,28.0
2019-02-08T13:28:14.979Z,27.9
2019-02-08T13:29:17.571Z,28.1
2019-02-08T13:30:20.864Z,28.3
2019-02-08T13:31:23.974Z,28.4
2019-02-08T13:32:26.489Z,28.2
2019-02-08T13:33:31.841Z,28.3
2019-02-08T13:34:33.258Z,28.4
2019-02-08T13:35:35.290Z,28.3
2019-02-08T13:36:37.786Z,28.8
2019-02-08T13:37:42.039Z,28.8
2019-02-08T13:38:43.441Z,28.9
2019-02-08T13:39:46.631Z,28.8
2019-02-08T13:40:50.716Z,29.0